Terminal Aerodrome Forecast
Issued by NWS Duluth, MN

Home | Current Version | Previous Version | Text Only | Print | Product List | Glossary On
Versions: 1 2 3 4 5 6 7 8 9 10 11 12 13 14 15 16 17 18 19 20
000
FTUS43 KDLH 271700
TAFDLH
TAF
KDLH 271735Z 2718/2818 34011KT P6SM SCT015
      TEMPO 2718/2722 BKN015
     FM272200 30010KT P6SM OVC025
     FM280000 27009KT P6SM OVC035
     FM280900 31009KT P6SM BKN030
     FM281400 36010KT P6SM SCT030=

USA.gov is the U.S. government's official web portal to all federal, state and local government web resources and services.